Time;durP1;ratioP1;P1;durP2;ratioP2;P2;SDS_P1;SDS_P2;PMS_P1;PMS_P2;Temp;Humidity;BMP_temperature;BMP_pressure;BME280_temperature;BME280_humidity;BME280_pressure;Samples;Min_cycle;Max_cycle;Signal;HPM_P1;HPM_P2
2022/12/23 00:00:45;;;;;;;27.95;18.15;;;;;;;8.62;100.00;100190.78;5029501;28;20164;-65
2022/12/23 00:03:10;;;;;;;25.77;18.52;;;;;;;8.63;100.00;100186.50;5029695;28;20026;-65
2022/12/23 00:05:37;;;;;;;28.23;17.67;;;;;;;8.61;100.00;100189.03;5028638;28;20021;-66
2022/12/23 00:08:03;;;;;;;24.25;19.40;;;;;;;8.62;100.00;100187.31;5029113;28;20075;-65
2022/12/23 00:10:28;;;;;;;25.45;19.40;;;;;;;8.61;100.00;100191.63;5028553;28;20013;-66
2022/12/23 00:15:37;;;;;;;34.40;20.98;;;;;;;8.61;100.00;100199.38;5028994;28;20080;-66
2022/12/23 00:18:02;;;;;;;29.42;21.17;;;;;;;8.61;100.00;100199.38;5028894;28;20030;-66
2022/12/23 00:20:28;;;;;;;31.73;21.45;;;;;;;8.61;100.00;100212.28;5028506;28;20030;-66
2022/12/23 00:23:05;;;;;;;28.25;21.45;;;;;;;8.60;100.00;100204.50;5029387;28;20115;-65
2022/12/23 00:25:39;;;;;;;32.60;21.90;;;;;;;8.60;100.00;100214.81;5028811;28;20029;-66
2022/12/23 00:28:22;;;;;;;36.42;23.63;;;;;;;8.59;100.00;100213.94;5028900;28;20029;-66
2022/12/23 00:30:53;;;;;;;35.80;24.95;;;;;;;8.60;100.00;100207.94;5015670;28;20013;-66
2022/12/23 00:33:23;;;;;;;34.08;25.23;;;;;;;8.61;100.00;100213.97;5019201;28;20460;-65
2022/12/23 00:35:49;;;;;;;32.38;25.08;;;;;;;8.60;100.00;100210.50;5026461;28;20022;-65
2022/12/23 00:38:16;;;;;;;37.25;25.33;;;;;;;8.60;100.00;100215.69;5029144;28;20378;-65
2022/12/23 00:43:26;;;;;;;40.55;28.45;;;;;;;8.61;100.00;100220.03;5022271;28;20076;-66
2022/12/23 00:45:52;;;;;;;44.42;29.23;;;;;;;8.61;100.00;100220.03;5029067;28;20029;-65
2022/12/23 00:51:01;;;;;;;43.92;29.48;;;;;;;8.63;100.00;100233.00;5016949;28;20449;-65
2022/12/23 00:53:26;;;;;;;43.63;27.33;;;;;;;8.62;100.00;100232.09;5026603;28;20033;-66
2022/12/23 00:55:52;;;;;;;44.03;28.38;;;;;;;8.63;100.00;100245.91;5011890;28;20025;-66
2022/12/23 00:58:19;;;;;;;43.20;28.65;;;;;;;8.61;100.00;100245.84;5028352;28;20587;-65
2022/12/23 01:06:13;;;;;;;42.25;28.70;;;;;;;8.60;100.00;100248.41;5019689;28;20064;-66
2022/12/23 01:08:38;;;;;;;38.17;26.70;;;;;;;8.60;100.00;100258.72;5029938;28;20033;-65
2022/12/23 01:11:06;;;;;;;44.63;28.17;;;;;;;8.59;100.00;100255.25;5028096;28;20439;-66
2022/12/23 01:13:32;;;;;;;45.03;28.50;;;;;;;8.59;100.00;100255.25;5035639;28;20029;-66
2022/12/23 01:16:07;;;;;;;43.25;29.30;;;;;;;8.59;100.00;100263.00;5019649;28;20022;-65
2022/12/23 01:18:34;;;;;;;45.75;28.30;;;;;;;8.58;100.00;100256.06;5014681;28;20046;-65
2022/12/23 01:21:08;;;;;;;43.10;29.08;;;;;;;8.58;100.00;100258.66;5018035;28;20084;-65
2022/12/23 01:23:34;;;;;;;42.28;27.75;;;;;;;8.58;100.00;100262.97;5030894;28;20041;-66
2022/12/23 01:26:01;;;;;;;43.20;26.27;;;;;;;8.59;100.00;100252.69;5009819;28;20036;-65
2022/12/23 01:28:28;;;;;;;46.53;27.60;;;;;;;8.59;100.00;100263.00;5024847;28;20060;-65
2022/12/23 01:30:54;;;;;;;39.97;26.88;;;;;;;8.58;100.00;100258.66;5030733;28;20024;-65
2022/12/23 01:33:20;;;;;;;47.30;29.25;;;;;;;8.58;100.00;100266.41;5041014;28;20037;-65
2022/12/23 01:35:45;;;;;;;44.08;28.58;;;;;;;8.58;100.00;100265.56;5030143;28;20029;-66
2022/12/23 01:38:11;;;;;;;45.83;28.50;;;;;;;8.57;100.00;100259.50;5035666;28;20039;-66
2022/12/23 01:40:40;;;;;;;46.20;28.50;;;;;;;8.57;100.00;100259.50;5025883;28;20032;-66
2022/12/23 01:43:05;;;;;;;42.72;29.45;;;;;;;8.57;100.00;100264.66;5008029;28;20537;-65
2022/12/23 01:45:31;;;;;;;49.35;30.70;;;;;;;8.58;100.00;100266.41;5020792;28;20033;-66
2022/12/23 01:47:59;;;;;;;46.85;28.92;;;;;;;8.57;100.00;100269.81;5026960;28;20035;-65
2022/12/23 01:50:30;;;;;;;41.80;29.85;;;;;;;8.56;100.00;100273.25;5017552;28;20214;-66
2022/12/23 01:53:05;;;;;;;42.35;27.85;;;;;;;8.56;100.00;100280.13;5007880;28;20415;-66
2022/12/23 01:55:34;;;;;;;43.95;29.65;;;;;;;8.55;100.00;100279.19;5023332;28;20504;-65
2022/12/23 01:58:06;;;;;;;46.47;30.35;;;;;;;8.56;100.00;100282.69;5026158;28;20034;-66
2022/12/23 02:09:15;;;;;;;43.80;30.60;;;;;;;8.55;100.00;100298.97;5021595;28;20037;-65
2022/12/23 02:12:06;;;;;;;47.10;29.73;;;;;;;8.53;100.00;100299.81;5025934;28;20095;-66
2022/12/23 02:17:35;;;;;;;46.33;31.00;;;;;;;8.55;100.00;100306.72;5020085;28;20426;-66
2022/12/23 02:20:09;;;;;;;40.58;29.20;;;;;;;8.54;100.00;100300.69;5025824;28;20033;-66
2022/12/23 02:22:50;;;;;;;41.05;29.67;;;;;;;8.53;100.00;100299.81;5019259;28;20049;-65
2022/12/23 02:25:34;;;;;;;43.38;30.95;;;;;;;8.54;100.00;100300.69;5007500;28;20025;-65
2022/12/23 02:28:27;;;;;;;43.97;28.75;;;;;;;8.55;100.00;100301.56;5013385;28;20029;-66
2022/12/23 02:31:23;;;;;;;40.95;29.48;;;;;;;8.54;100.00;100305.88;5013373;28;20090;-65
2022/12/23 02:33:57;;;;;;;41.40;28.73;;;;;;;8.56;100.00;100312.00;5026907;28;20026;-65
2022/12/23 02:36:50;;;;;;;46.15;30.95;;;;;;;8.55;100.00;100317.03;5019255;28;20025;-65
2022/12/23 02:39:41;;;;;;;41.47;28.02;;;;;;;8.53;100.00;100329.91;5023710;28;20029;-65
2022/12/23 02:42:19;;;;;;;38.97;26.50;;;;;;;8.53;100.00;100340.25;5023991;28;20382;-65
2022/12/23 02:44:47;;;;;;;40.47;28.88;;;;;;;8.53;100.00;100345.41;5026570;28;20068;-66
2022/12/23 02:47:21;;;;;;;41.25;29.85;;;;;;;8.53;100.00;100348.00;5024242;28;20076;-65
2022/12/23 02:49:51;;;;;;;38.40;28.15;;;;;;;8.53;100.00;100359.22;5024964;28;20498;-66
2022/12/23 02:52:19;;;;;;;38.72;25.75;;;;;;;8.53;100.00;100366.06;5024672;28;20120;-66
2022/12/23 02:54:50;;;;;;;38.50;27.60;;;;;;;8.53;100.00;100361.78;5024446;28;20033;-65
2022/12/23 02:57:24;;;;;;;38.15;26.33;;;;;;;8.53;100.00;100361.78;5007248;28;20034;-66
2022/12/23 02:59:51;;;;;;;38.17;28.65;;;;;;;8.53;100.00;100368.66;5012777;28;20040;-66
2022/12/23 03:02:17;;;;;;;33.58;23.58;;;;;;;8.52;100.00;100366.91;5026983;28;20092;-66
2022/12/23 03:04:43;;;;;;;35.03;25.02;;;;;;;8.53;100.00;100358.31;5026061;28;20099;-65
2022/12/23 03:07:30;;;;;;;35.60;24.48;;;;;;;8.53;100.00;100363.50;5026443;28;20481;-66
2022/12/23 03:10:07;;;;;;;36.88;24.67;;;;;;;8.53;100.00;100360.91;5021565;28;20044;-65
2022/12/23 03:12:57;;;;;;;35.78;24.40;;;;;;;8.52;100.00;100364.34;5027451;28;20073;-65
2022/12/23 03:16:10;;;;;;;33.53;23.92;;;;;;;8.52;100.00;100372.06;5025294;28;20359;-66
2022/12/23 03:18:54;;;;;;;38.15;23.65;;;;;;;8.52;100.00;100372.97;4931890;29;20062;-65
2022/12/23 03:21:28;;;;;;;33.63;23.50;;;;;;;8.52;100.00;100366.91;5015564;28;20041;-65
2022/12/23 03:24:33;;;;;;;33.67;23.08;;;;;;;8.51;100.00;100363.44;5024703;28;20013;-66
2022/12/23 03:27:10;;;;;;;33.42;22.23;;;;;;;8.51;100.00;100362.56;5024447;28;20037;-65
2022/12/23 03:29:42;;;;;;;35.90;23.38;;;;;;;8.51;100.00;100365.13;5026317;28;20022;-65
2022/12/23 03:32:12;;;;;;;32.97;22.98;;;;;;;8.52;100.00;100359.16;5025620;28;20045;-65
2022/12/23 03:34:42;;;;;;;35.67;23.90;;;;;;;8.50;100.00;100356.53;5013246;28;20040;-65
2022/12/23 03:37:10;;;;;;;37.88;23.33;;;;;;;8.51;100.00;100353.13;5025507;28;20176;-65
2022/12/23 03:39:45;;;;;;;35.60;23.25;;;;;;;8.48;100.00;100355.59;5015011;28;20036;-65
2022/12/23 03:42:25;;;;;;;40.88;23.38;;;;;;;8.49;100.00;100364.25;5025728;28;20021;-65
2022/12/23 03:44:52;;;;;;;35.20;24.15;;;;;;;8.48;100.00;100365.94;5026132;28;20056;-65
2022/12/23 03:47:22;;;;;;;37.22;22.65;;;;;;;8.49;100.00;100366.81;5027103;28;20048;-66
2022/12/23 03:49:52;;;;;;;34.90;23.23;;;;;;;8.49;100.00;100353.91;5027597;28;20045;-65
2022/12/23 03:52:24;;;;;;;38.55;23.98;;;;;;;8.49;100.00;100357.34;5027982;28;20021;-65
2022/12/23 03:54:54;;;;;;;38.00;24.38;;;;;;;8.50;100.00;100365.97;5028767;28;20026;-65
2022/12/23 03:57:36;;;;;;;36.47;22.98;;;;;;;8.48;100.00;100362.47;5018381;28;20085;-65
2022/12/23 04:00:02;;;;;;;36.85;21.88;;;;;;;8.48;100.00;100362.47;5010347;28;20113;-65
2022/12/23 04:03:05;;;;;;;36.08;22.17;;;;;;;8.48;100.00;100367.63;5010365;28;20113;-66
2022/12/23 04:05:34;;;;;;;36.53;22.55;;;;;;;8.48;100.00;100372.78;5010036;28;20040;-65
2022/12/23 04:08:26;;;;;;;39.22;22.90;;;;;;;8.46;100.00;100369.28;5016050;28;20041;-66
2022/12/23 04:10:52;;;;;;;40.88;23.92;;;;;;;8.46;100.00;100369.28;5029323;28;20033;-66
2022/12/23 04:13:17;;;;;;;40.47;23.85;;;;;;;8.44;100.00;100378.72;5029147;28;20523;-65
2022/12/23 04:15:42;;;;;;;41.33;23.10;;;;;;;8.44;100.00;100381.28;5028972;28;20029;-65
2022/12/23 04:18:09;;;;;;;36.35;23.63;;;;;;;8.44;100.00;100381.28;5028955;28;20028;-65
2022/12/23 04:20:35;;;;;;;40.90;25.40;;;;;;;8.44;100.00;100383.88;5026826;28;20056;-65
2022/12/23 04:23:00;;;;;;;42.05;24.73;;;;;;;8.43;100.00;100388.16;5019275;28;20061;-65
2022/12/23 04:25:26;;;;;;;41.55;26.30;;;;;;;8.43;100.00;100395.91;5010462;28;20025;-65
2022/12/23 04:27:51;;;;;;;44.15;27.08;;;;;;;8.42;100.00;100396.69;5015304;28;20021;-66
2022/12/23 04:30:17;;;;;;;43.75;26.65;;;;;;;8.42;100.00;100399.28;5028772;28;20021;-65
2022/12/23 04:32:43;;;;;;;36.97;25.20;;;;;;;8.43;100.00;100407.91;5028735;28;20052;-66
2022/12/23 04:35:09;;;;;;;45.20;26.20;;;;;;;8.43;100.00;100418.25;5029045;28;20053;-65
2022/12/23 04:37:35;;;;;;;42.97;25.13;;;;;;;8.43;100.00;100415.66;5027927;28;20034;-65
2022/12/23 04:40:01;;;;;;;44.13;25.83;;;;;;;8.40;100.00;100414.72;5029139;28;20042;-66
2022/12/23 04:42:26;;;;;;;41.17;25.73;;;;;;;8.41;100.00;100415.63;5028028;28;20025;-66
2022/12/23 04:44:51;;;;;;;41.67;24.42;;;;;;;8.41;100.00;100405.28;5028785;28;20515;-66
2022/12/23 04:47:16;;;;;;;41.55;25.20;;;;;;;8.39;100.00;100405.25;5028190;28;20026;-65
2022/12/23 04:49:42;;;;;;;41.20;26.75;;;;;;;8.38;100.00;100403.47;5028968;28;20041;-65
2022/12/23 04:52:07;;;;;;;36.83;24.92;;;;;;;8.38;100.00;100392.28;5009808;28;20018;-66
2022/12/23 04:54:33;;;;;;;39.03;24.63;;;;;;;8.37;100.00;100395.66;5008830;28;20473;-65
2022/12/23 04:56:58;;;;;;;40.70;24.13;;;;;;;8.36;100.00;100389.66;5009288;28;20109;-65
2022/12/23 04:59:24;;;;;;;42.75;25.60;;;;;;;8.35;100.00;100387.88;5023053;28;20100;-65
2022/12/23 05:01:49;;;;;;;41.35;26.38;;;;;;;8.36;100.00;100394.81;5028640;28;20033;-66
2022/12/23 05:04:14;;;;;;;46.55;27.40;;;;;;;8.35;100.00;100377.56;5028143;28;20063;-66
2022/12/23 05:06:39;;;;;;;47.03;26.75;;;;;;;8.34;100.00;100380.97;5028627;28;20029;-65
2022/12/23 05:09:05;;;;;;;44.15;26.75;;;;;;;8.33;100.00;100376.63;5027537;28;20036;-66
2022/12/23 05:11:31;;;;;;;44.38;26.17;;;;;;;8.34;100.00;100386.13;5028391;28;20401;-65
2022/12/23 05:13:56;;;;;;;42.50;25.98;;;;;;;8.34;100.00;100386.13;5027391;28;20023;-65
2022/12/23 05:16:22;;;;;;;44.20;27.08;;;;;;;8.34;100.00;100390.41;5027074;28;20041;-66
2022/12/23 05:18:47;;;;;;;39.80;24.75;;;;;;;8.32;100.00;100392.94;5029618;28;20475;-65
2022/12/23 05:21:12;;;;;;;39.08;23.85;;;;;;;8.32;100.00;100400.69;5036697;28;20016;-66
2022/12/23 05:23:38;;;;;;;36.05;21.85;;;;;;;8.32;100.00;100405.84;5026810;28;20021;-65
2022/12/23 05:26:03;;;;;;;35.33;21.60;;;;;;;8.32;100.00;100417.88;5009534;28;20646;-67
2022/12/23 05:28:28;;;;;;;32.03;21.83;;;;;;;8.32;100.00;100423.03;5016027;28;20390;-65
2022/12/23 05:31:07;;;;;;;30.60;21.10;;;;;;;8.31;100.00;100427.31;5008650;28;20413;-66
2022/12/23 05:33:33;;;;;;;34.13;21.52;;;;;;;8.31;100.00;100440.22;5025190;28;20115;-66
2022/12/23 05:35:59;;;;;;;34.20;21.70;;;;;;;8.30;100.00;100430.72;5015389;28;20030;-65
2022/12/23 05:38:25;;;;;;;34.28;22.20;;;;;;;8.30;100.00;100430.72;5011594;28;20029;-66
2022/12/23 05:40:51;;;;;;;34.33;21.65;;;;;;;8.29;100.00;100435.00;5009284;28;20028;-65
2022/12/23 05:43:17;;;;;;;40.35;22.20;;;;;;;8.29;100.00;100445.34;5018288;28;20028;-65
2022/12/23 05:45:42;;;;;;;34.00;21.48;;;;;;;8.29;100.00;100444.47;5015137;28;20391;-65
2022/12/23 05:48:08;;;;;;;40.17;22.13;;;;;;;8.31;100.00;100450.56;5011579;28;20041;-66
2022/12/23 05:50:33;;;;;;;36.40;22.52;;;;;;;8.28;100.00;100445.28;5010766;28;20506;-66
2022/12/23 05:52:59;;;;;;;38.50;22.23;;;;;;;8.29;100.00;100439.31;5009932;28;20490;-65
2022/12/23 05:55:25;;;;;;;37.45;22.55;;;;;;;8.30;100.00;100438.47;5022021;28;20041;-65
2022/12/23 05:57:51;;;;;;;36.85;22.95;;;;;;;8.29;100.00;100434.16;5013480;28;20386;-66
2022/12/23 06:00:16;;;;;;;40.67;22.83;;;;;;;8.30;100.00;100425.56;5009810;28;20026;-65
2022/12/23 06:02:42;;;;;;;39.28;23.25;;;;;;;8.28;100.00;100420.34;5010050;28;20037;-66
2022/12/23 06:05:08;;;;;;;37.63;23.63;;;;;;;8.31;100.00;100416.13;5008641;28;20037;-65
2022/12/23 06:07:34;;;;;;;40.25;25.38;;;;;;;8.30;100.00;100417.81;5009617;28;20026;-66
2022/12/23 06:09:59;;;;;;;46.50;25.55;;;;;;;8.30;100.00;100415.25;5010556;28;20152;-65
2022/12/23 06:12:24;;;;;;;41.85;23.02;;;;;;;8.31;100.00;100406.66;5009670;28;20029;-65
2022/12/23 06:14:50;;;;;;;38.67;24.42;;;;;;;8.32;100.00;100407.53;5009154;28;20433;-65
2022/12/23 06:17:15;;;;;;;41.88;26.17;;;;;;;8.29;100.00;100404.03;5011899;28;20037;-66
2022/12/23 06:19:40;;;;;;;44.17;25.55;;;;;;;8.31;100.00;100406.66;5007466;28;20493;-65
2022/12/23 06:22:05;;;;;;;44.83;26.98;;;;;;;8.31;100.00;100396.34;5012126;28;20036;-66
2022/12/23 06:24:31;;;;;;;44.78;25.58;;;;;;;8.31;100.00;100393.75;5020061;28;20033;-65
2022/12/23 06:26:56;;;;;;;48.25;27.13;;;;;;;8.31;100.00;100392.91;5030369;28;20044;-66
2022/12/23 06:29:21;;;;;;;46.95;27.88;;;;;;;8.30;100.00;100394.59;5030213;28;20021;-66
2022/12/23 06:31:47;;;;;;;46.00;28.30;;;;;;;8.29;100.00;100400.59;5018498;28;20030;-66
2022/12/23 06:34:12;;;;;;;44.70;26.58;;;;;;;8.29;100.00;100393.69;5024816;28;20041;-66
2022/12/23 06:36:37;;;;;;;43.95;26.95;;;;;;;8.29;100.00;100398.00;5008716;28;20270;-65
2022/12/23 06:39:03;;;;;;;46.65;28.42;;;;;;;8.27;100.00;100404.81;5022714;28;20029;-65
2022/12/23 06:41:28;;;;;;;52.60;30.90;;;;;;;8.29;100.00;100416.94;5009848;28;20030;-66
2022/12/23 06:43:53;;;;;;;53.03;31.80;;;;;;;8.28;100.00;100415.19;5010511;28;20021;-65
2022/12/23 06:46:19;;;;;;;50.40;32.22;;;;;;;8.27;100.00;100413.41;5023247;28;20029;-66
2022/12/23 06:48:44;;;;;;;53.78;31.88;;;;;;;8.28;100.00;100411.72;5026478;28;20025;-66
2022/12/23 06:51:10;;;;;;;56.38;31.17;;;;;;;8.27;100.00;100421.16;5011475;28;20052;-66
2022/12/23 06:53:35;;;;;;;57.95;35.45;;;;;;;8.27;100.00;100426.31;5008239;28;20033;-66
2022/12/23 06:56:02;;;;;;;63.22;35.80;;;;;;;8.27;100.00;100431.50;5006278;28;20037;-66
2022/12/23 06:58:28;;;;;;;58.10;35.45;;;;;;;8.27;100.00;100435.78;5007574;28;20544;-66
2022/12/23 07:00:53;;;;;;;58.20;34.40;;;;;;;8.25;100.00;100448.66;5005956;28;20034;-65
2022/12/23 07:03:19;;;;;;;60.40;36.40;;;;;;;8.24;100.00;100462.38;5008494;28;20642;-66
2022/12/23 07:05:50;;;;;;;56.53;34.20;;;;;;;8.26;100.00;100470.16;5009105;28;20515;-65
2022/12/23 07:08:19;;;;;;;58.05;34.90;;;;;;;8.25;100.00;100478.75;5008347;28;20033;-65
2022/12/23 07:10:45;;;;;;;60.22;35.22;;;;;;;8.24;100.00;100484.75;5008965;28;20025;-66
2022/12/23 07:13:10;;;;;;;58.53;35.67;;;;;;;8.24;100.00;100490.75;5007952;28;20033;-66
2022/12/23 07:15:37;;;;;;;63.05;35.47;;;;;;;8.24;100.00;100482.16;5008447;28;20116;-65
2022/12/23 07:18:02;;;;;;;62.35;37.15;;;;;;;8.24;100.00;100461.50;5005635;28;20081;-66
2022/12/23 07:20:28;;;;;;;68.32;37.55;;;;;;;8.22;100.00;100458.84;5011292;28;20108;-66
2022/12/23 07:22:53;;;;;;;66.75;38.03;;;;;;;8.24;100.00;100451.19;5024901;28;20034;-65
2022/12/23 07:25:19;;;;;;;73.90;41.47;;;;;;;8.23;100.00;100454.56;5013384;28;20021;-65
2022/12/23 07:27:44;;;;;;;73.38;38.70;;;;;;;8.23;100.00;100458.03;5014451;28;20056;-66
2022/12/23 07:30:10;;;;;;;76.45;39.55;;;;;;;8.23;100.00;100449.41;5015045;28;20036;-65
2022/12/23 07:32:35;;;;;;;73.00;40.20;;;;;;;8.24;100.00;100461.50;5015490;28;20030;-66
2022/12/23 07:35:00;;;;;;;70.22;38.15;;;;;;;8.22;100.00;100458.00;5016638;28;20486;-65
2022/12/23 07:37:25;;;;;;;74.05;39.20;;;;;;;8.23;100.00;100454.56;5013225;28;20025;-65
2022/12/23 07:39:51;;;;;;;74.82;37.17;;;;;;;8.21;100.00;100446.78;5017074;28;20521;-65
2022/12/23 07:42:16;;;;;;;78.25;36.50;;;;;;;8.22;100.00;100442.50;5014635;28;20026;-65
2022/12/23 07:44:41;;;;;;;70.50;37.47;;;;;;;8.23;100.00;100449.41;5012834;28;20037;-66
2022/12/23 07:47:07;;;;;;;80.18;38.92;;;;;;;8.22;100.00;100447.66;5024759;28;20029;-65
2022/12/23 07:49:33;;;;;;;69.78;35.38;;;;;;;8.20;100.00;100442.47;5011768;28;20470;-66
2022/12/23 07:51:58;;;;;;;71.75;36.92;;;;;;;8.21;100.00;100448.47;5012525;28;20681;-65
2022/12/23 07:54:23;;;;;;;83.20;38.58;;;;;;;8.20;100.00;100457.06;5018112;28;20608;-65
2022/12/23 07:56:48;;;;;;;79.00;38.70;;;;;;;8.20;100.00;100457.06;5011261;28;20049;-66
2022/12/23 07:59:14;;;;;;;79.82;39.60;;;;;;;8.20;100.00;100442.47;5012076;28;20030;-66
2022/12/23 08:01:39;;;;;;;78.93;37.78;;;;;;;8.22;100.00;100442.50;5009996;28;20038;-66
2022/12/23 08:04:04;;;;;;;80.10;36.55;;;;;;;8.20;100.00;100450.19;5011679;28;20037;-65
2022/12/23 08:06:31;;;;;;;79.97;37.67;;;;;;;8.21;100.00;100445.88;5017280;28;20489;-65
2022/12/23 08:08:56;;;;;;;70.68;35.75;;;;;;;8.20;100.00;100446.72;5018097;28;20032;-65
2022/12/23 08:11:21;;;;;;;81.15;37.33;;;;;;;8.19;100.00;100429.47;5019702;28;20075;-65
2022/12/23 08:13:48;;;;;;;73.00;36.17;;;;;;;8.16;100.00;100428.56;5012533;28;20080;-66
2022/12/23 08:16:13;;;;;;;69.80;34.55;;;;;;;8.16;100.00;100433.72;5020830;28;20040;-65
2022/12/23 08:18:40;;;;;;;73.78;36.28;;;;;;;8.16;100.00;100430.25;5014370;28;20033;-65
2022/12/23 08:21:17;;;;;;;68.93;32.92;;;;;;;8.16;100.00;100418.25;5011713;28;20465;-66
2022/12/23 08:23:43;;;;;;;66.72;33.85;;;;;;;8.15;100.00;100426.78;5027110;28;20117;-65
2022/12/23 08:26:10;;;;;;;65.85;32.60;;;;;;;8.16;100.00;100441.47;5016983;28;20618;-66
2022/12/23 08:28:36;;;;;;;61.40;32.05;;;;;;;8.13;100.00;100428.44;5012986;28;20041;-66
2022/12/23 08:31:16;;;;;;;75.05;34.00;;;;;;;8.12;100.00;100439.59;5010101;28;20374;-65
2022/12/23 08:33:44;;;;;;;64.32;33.25;;;;;;;8.12;100.00;100426.69;5008177;28;20040;-66
2022/12/23 08:36:13;;;;;;;68.85;32.00;;;;;;;8.11;100.00;100427.50;5010242;28;20090;-66
2022/12/23 08:38:38;;;;;;;60.72;29.95;;;;;;;8.12;100.00;100434.44;5015284;28;20107;-66
2022/12/23 08:41:09;;;;;;;66.90;30.98;;;;;;;8.13;100.00;100432.75;5020639;28;20112;-65
2022/12/23 08:43:35;;;;;;;62.67;30.73;;;;;;;8.11;100.00;100429.22;5018593;28;20480;-66
2022/12/23 08:46:00;;;;;;;57.70;28.27;;;;;;;8.12;100.00;100424.09;5014100;28;20026;-65
2022/12/23 08:48:25;;;;;;;52.72;27.38;;;;;;;8.15;100.00;100415.56;5015671;28;20077;-65
2022/12/23 08:50:50;;;;;;;52.88;27.15;;;;;;;8.13;100.00;100415.53;5012938;28;20038;-65
2022/12/23 08:53:16;;;;;;;55.15;28.08;;;;;;;8.15;100.00;100413.00;5009121;28;20539;-65
2022/12/23 08:55:44;;;;;;;53.53;26.15;;;;;;;8.12;100.00;100400.88;5008926;28;20030;-66
2022/12/23 08:58:11;;;;;;;53.03;25.30;;;;;;;8.11;100.00;100406.00;5023350;28;20056;-65
2022/12/23 09:00:37;;;;;;;44.08;24.35;;;;;;;8.13;100.00;100402.63;5014793;28;20021;-66
2022/12/23 09:03:02;;;;;;;52.67;27.23;;;;;;;8.13;100.00;100407.78;5008842;28;20076;-65
2022/12/23 09:05:28;;;;;;;48.25;24.85;;;;;;;8.15;100.00;100405.25;5016269;28;20116;-65
2022/12/23 09:07:53;;;;;;;51.35;26.38;;;;;;;8.14;100.00;100403.50;5012089;28;20026;-66
2022/12/23 09:10:18;;;;;;;43.83;24.75;;;;;;;8.13;100.00;100397.47;5014170;28;20021;-65
2022/12/23 09:12:44;;;;;;;42.33;24.05;;;;;;;8.13;100.00;100386.28;5009620;28;20029;-65
2022/12/23 09:15:09;;;;;;;41.90;23.15;;;;;;;8.16;100.00;100387.25;5023002;28;20014;-66
2022/12/23 09:17:35;;;;;;;48.97;25.40;;;;;;;8.13;100.00;100375.94;5027168;28;20021;-65
2022/12/23 09:20:00;;;;;;;49.22;23.10;;;;;;;8.14;100.00;100378.59;5017905;28;20033;-65
2022/12/23 09:22:25;;;;;;;36.97;21.13;;;;;;;8.14;100.00;100363.09;5019100;28;20033;-66
2022/12/23 09:24:51;;;;;;;44.53;22.02;;;;;;;8.13;100.00;100356.16;5021364;28;20436;-65
2022/12/23 09:27:17;;;;;;;36.60;20.48;;;;;;;8.13;100.00;100356.16;5016443;28;20040;-65
2022/12/23 09:29:42;;;;;;;41.15;20.98;;;;;;;8.14;100.00;100359.63;5008753;28;20510;-66
2022/12/23 09:32:07;;;;;;;38.88;21.65;;;;;;;8.15;100.00;100358.78;5014329;28;20052;-65
2022/12/23 09:34:33;;;;;;;36.72;20.52;;;;;;;8.14;100.00;100357.94;5021236;28;20496;-66
2022/12/23 09:36:58;;;;;;;38.42;20.90;;;;;;;8.16;100.00;100355.41;5024108;28;20026;-66
2022/12/23 09:39:24;;;;;;;39.85;21.80;;;;;;;8.16;100.00;100351.13;5022347;28;20644;-65
2022/12/23 09:42:11;;;;;;;35.00;19.10;;;;;;;8.17;100.00;100351.97;5023411;28;20029;-66
2022/12/23 09:44:58;;;;;;;36.03;19.52;;;;;;;8.18;100.00;100343.44;5025648;28;20830;-65
2022/12/23 09:47:27;;;;;;;31.65;17.90;;;;;;;8.15;100.00;100341.63;5022036;28;20056;-66
2022/12/23 09:49:56;;;;;;;37.75;17.58;;;;;;;8.16;100.00;100334.75;5029850;28;20053;-66
2022/12/23 09:52:50;;;;;;;27.77;16.88;;;;;;;8.13;100.00;100325.19;5027175;28;20040;-65
2022/12/23 09:55:17;;;;;;;28.27;16.48;;;;;;;8.16;100.00;100325.31;5022343;28;20051;-65
2022/12/23 09:57:59;;;;;;;27.00;17.10;;;;;;;8.16;100.00;100322.75;5013400;28;20100;-65
2022/12/23 10:00:36;;;;;;;29.20;16.50;;;;;;;8.17;100.00;100319.31;5019022;28;20426;-65
2022/12/23 10:03:24;;;;;;;26.90;15.52;;;;;;;8.19;100.00;100332.28;5026471;28;20044;-65
2022/12/23 10:06:12;;;;;;;31.60;15.70;;;;;;;8.19;100.00;100336.53;5020601;28;20038;-66
2022/12/23 10:08:45;;;;;;;30.98;17.27;;;;;;;8.17;100.00;100339.06;5026155;28;20044;-66
2022/12/23 10:11:19;;;;;;;33.53;16.25;;;;;;;8.18;100.00;100340.84;5025896;28;20030;-66
2022/12/23 10:13:51;;;;;;;33.47;16.42;;;;;;;8.20;100.00;100328.00;5025937;28;20462;-66
2022/12/23 10:16:20;;;;;;;29.67;15.70;;;;;;;8.22;100.00;100318.59;5023783;28;20033;-65
2022/12/23 10:19:01;;;;;;;29.15;16.33;;;;;;;8.22;100.00;100305.69;5024800;28;20056;-65
2022/12/23 10:21:37;;;;;;;30.95;17.33;;;;;;;8.23;100.00;100310.91;5021700;28;20042;-65
2022/12/23 10:24:21;;;;;;;26.08;15.48;;;;;;;8.23;100.00;100300.56;5030634;28;20020;-65
2022/12/23 10:27:20;;;;;;;28.65;17.50;;;;;;;8.22;100.00;100292.78;5034961;28;20424;-65
2022/12/23 10:29:46;;;;;;;29.13;16.23;;;;;;;8.25;100.00;100290.31;4974829;28;20033;-66
2022/12/23 10:32:26;;;;;;;27.30;15.38;;;;;;;8.24;100.00;100275.66;5021290;28;20151;-65
2022/12/23 10:35:13;;;;;;;26.17;14.63;;;;;;;8.26;100.00;100284.28;5026945;28;20078;-65
2022/12/23 10:37:53;;;;;;;25.33;14.52;;;;;;;8.27;100.00;100270.59;5025601;28;20098;-65
2022/12/23 10:40:56;;;;;;;25.80;14.48;;;;;;;8.30;100.00;100255.19;5025600;28;20049;-65
2022/12/23 10:43:43;;;;;;;22.73;14.43;;;;;;;8.33;100.00;100269.91;5013669;28;20037;-66
2022/12/23 10:46:33;;;;;;;24.42;14.15;;;;;;;8.33;100.00;100263.03;5014586;28;20044;-65
2022/12/23 10:49:26;;;;;;;22.00;12.90;;;;;;;8.39;100.00;100252.00;5006468;28;20041;-66
2022/12/23 10:51:56;;;;;;;17.95;12.48;;;;;;;8.39;100.00;100252.00;5005847;28;20053;-66
2022/12/23 10:54:28;;;;;;;21.08;12.48;;;;;;;8.40;100.00;100241.72;5015249;28;20037;-66
2022/12/23 10:56:53;;;;;;;;;;;;;;;8.39;100.00;100245.16;5013843;28;20045;-66
2022/12/23 10:59:25;;;;;;;20.42;11.75;;;;;;;8.38;100.00;100232.19;5021666;28;19929;-65
2022/12/23 11:02:00;;;;;;;17.90;11.10;;;;;;;8.37;100.00;100231.31;5026325;28;20026;-66
2022/12/23 11:04:34;;;;;;;16.38;11.52;;;;;;;8.36;100.00;100219.25;5012284;28;20496;-65
2022/12/23 11:07:01;;;;;;;24.17;12.77;;;;;;;8.34;100.00;100212.28;5017591;28;20018;-65
2022/12/23 11:09:36;;;;;;;17.55;11.18;;;;;;;8.33;100.00;100201.06;5029210;28;20523;-65
2022/12/23 11:12:04;;;;;;;19.23;12.15;;;;;;;8.34;100.00;100194.19;5017510;28;20033;-65
2022/12/23 11:14:53;;;;;;;19.85;11.13;;;;;;;8.33;100.00;100193.31;5028745;28;20065;-65
2022/12/23 11:17:27;;;;;;;19.83;11.55;;;;;;;8.36;100.00;100195.13;5030198;28;20033;-65
2022/12/23 11:20:11;;;;;;;15.48;11.18;;;;;;;8.33;100.00;100190.72;5029050;28;20033;-65
2022/12/23 11:22:48;;;;;;;17.83;11.55;;;;;;;8.29;100.00;100183.75;5029023;28;20124;-65
2022/12/23 11:25:23;;;;;;;21.60;11.57;;;;;;;8.28;100.00;100188.03;5029759;28;20065;-65
2022/12/23 11:27:54;;;;;;;14.98;9.25;;;;;;;8.28;100.00;100187.13;5030234;28;20025;-65
2022/12/23 11:30:20;;;;;;;15.60;10.32;;;;;;;8.26;100.00;100187.09;5018259;28;20493;-66
2022/12/23 11:32:45;;;;;;;18.52;10.05;;;;;;;8.25;100.00;100184.47;5015709;28;20021;-65
2022/12/23 11:35:40;;;;;;;18.83;10.40;;;;;;;8.23;100.00;100171.50;5019062;28;20022;-66
2022/12/23 11:38:12;;;;;;;16.05;10.90;;;;;;;8.21;100.00;100151.63;4994198;28;20568;-65
2022/12/23 11:40:49;;;;;;;16.65;10.57;;;;;;;8.19;100.00;100158.44;5011747;28;20057;-65
2022/12/23 11:43:15;;;;;;;17.02;9.82;;;;;;;8.18;100.00;100160.16;5012033;28;20018;-65
2022/12/23 11:45:41;;;;;;;15.27;9.90;;;;;;;8.17;100.00;100151.53;5013043;28;20381;-66
2022/12/23 11:48:26;;;;;;;20.40;10.57;;;;;;;8.15;100.00;100142.88;5012688;28;20026;-65